createdAt,value
2022-12-29T00:00:23.183Z,5.90
2022-12-29T00:03:10.559Z,6.00
2022-12-29T00:05:37.677Z,5.90
2022-12-29T00:08:05.980Z,5.90
2022-12-29T00:10:33.901Z,5.90
2022-12-29T00:13:19.756Z,5.90
2022-12-29T00:15:46.813Z,6.00
2022-12-29T00:18:14.058Z,6.00
2022-12-29T00:20:59.856Z,6.00
2022-12-29T00:23:45.685Z,6.00
2022-12-29T00:26:34.651Z,5.90
2022-12-29T00:29:20.637Z,5.90
2022-12-29T00:32:06.330Z,6.00
2022-12-29T00:34:53.111Z,5.90
2022-12-29T00:37:40.147Z,5.90
2022-12-29T00:40:26.456Z,6.00
2022-12-29T00:43:12.086Z,6.00
2022-12-29T00:45:44.576Z,5.90
2022-12-29T00:48:11.490Z,5.90
2022-12-29T00:50:38.749Z,5.90
2022-12-29T00:53:05.723Z,5.90
2022-12-29T00:55:36.917Z,5.90
2022-12-29T00:58:03.884Z,5.90
2022-12-29T01:00:31.168Z,5.90
2022-12-29T01:02:58.241Z,5.80
2022-12-29T01:05:25.724Z,5.80
2022-12-29T01:07:52.665Z,5.80
2022-12-29T01:10:19.876Z,5.80
2022-12-29T01:12:48.399Z,5.90
2022-12-29T01:15:16.176Z,5.80
2022-12-29T01:17:43.698Z,5.80
2022-12-29T01:20:12.237Z,5.80
2022-12-29T01:22:39.757Z,5.80
2022-12-29T01:25:07.655Z,5.80
2022-12-29T01:27:34.713Z,5.80
2022-12-29T01:30:02.016Z,5.90
2022-12-29T01:32:29.297Z,5.80
2022-12-29T01:34:56.577Z,5.80
2022-12-29T01:37:23.511Z,5.80
2022-12-29T01:39:50.909Z,5.80
2022-12-29T01:42:20.062Z,5.80
2022-12-29T01:44:55.317Z,5.80
2022-12-29T01:47:29.510Z,5.90
2022-12-29T01:49:59.740Z,5.90
2022-12-29T01:52:29.605Z,5.90
2022-12-29T01:54:58.660Z,5.90
2022-12-29T01:57:30.822Z,5.80
2022-12-29T02:00:19.767Z,5.90
2022-12-29T02:02:51.768Z,5.80
2022-12-29T02:05:53.491Z,5.80
2022-12-29T02:08:23.400Z,5.80
2022-12-29T02:10:50.758Z,5.80
2022-12-29T02:13:18.390Z,5.80
2022-12-29T02:16:19.669Z,5.80
2022-12-29T02:19:04.516Z,5.70
2022-12-29T02:21:46.956Z,5.70
2022-12-29T02:24:35.396Z,5.70
2022-12-29T02:27:31.159Z,5.70
2022-12-29T02:30:06.617Z,5.70
2022-12-29T02:32:43.938Z,5.70
2022-12-29T02:35:25.857Z,5.60
2022-12-29T02:38:17.385Z,5.60
2022-12-29T02:41:07.038Z,5.50
2022-12-29T02:43:40.567Z,5.50
2022-12-29T02:46:21.509Z,5.40
2022-12-29T02:49:07.463Z,5.40
2022-12-29T02:51:44.144Z,5.40
2022-12-29T02:54:30.326Z,5.30
2022-12-29T02:56:57.280Z,5.30
2022-12-29T02:59:24.819Z,5.30
2022-12-29T03:02:18.093Z,5.20
2022-12-29T03:05:21.791Z,5.20
2022-12-29T03:08:23.975Z,5.10
2022-12-29T03:11:06.375Z,5.10
2022-12-29T03:14:06.096Z,5.00
2022-12-29T03:16:35.929Z,5.00
2022-12-29T03:19:08.186Z,4.90
2022-12-29T03:22:01.439Z,4.80
2022-12-29T03:24:32.255Z,4.80
2022-12-29T03:27:02.947Z,4.70
2022-12-29T03:29:33.976Z,4.80
2022-12-29T03:32:04.068Z,4.80
2022-12-29T03:34:31.713Z,4.70
2022-12-29T03:37:03.945Z,4.70
2022-12-29T03:39:30.973Z,4.80
2022-12-29T03:42:05.880Z,4.80
2022-12-29T03:44:44.500Z,4.70
2022-12-29T03:47:13.604Z,4.70
2022-12-29T03:49:42.076Z,4.70
2022-12-29T03:52:09.498Z,4.70
2022-12-29T03:54:36.500Z,4.70
2022-12-29T03:57:03.752Z,4.60
2022-12-29T03:59:30.732Z,4.60
2022-12-29T04:01:58.192Z,4.50
2022-12-29T04:04:25.224Z,4.50
2022-12-29T04:06:52.579Z,4.50
2022-12-29T04:09:20.996Z,4.50
2022-12-29T04:11:48.311Z,4.50
2022-12-29T04:14:15.268Z,4.50
2022-12-29T04:16:42.635Z,4.50
2022-12-29T04:19:09.879Z,4.50
2022-12-29T04:21:37.128Z,4.50
2022-12-29T04:24:07.505Z,4.60
2022-12-29T04:26:34.897Z,4.50
2022-12-29T04:29:01.845Z,4.50
2022-12-29T04:31:29.343Z,4.50
2022-12-29T04:33:58.227Z,4.50
2022-12-29T04:36:29.862Z,4.50
2022-12-29T04:38:57.437Z,4.50
2022-12-29T04:41:24.937Z,4.50
2022-12-29T04:43:51.996Z,4.50
2022-12-29T04:46:19.496Z,4.50
2022-12-29T04:48:46.751Z,4.50
2022-12-29T04:51:14.201Z,4.40
2022-12-29T04:53:41.343Z,4.40
2022-12-29T04:56:10.154Z,4.40
2022-12-29T04:58:37.781Z,4.40
2022-12-29T05:01:05.013Z,4.40
2022-12-29T05:03:32.281Z,4.40
2022-12-29T05:05:59.585Z,4.40
2022-12-29T05:08:28.512Z,4.40
2022-12-29T05:10:55.971Z,4.40
2022-12-29T05:13:22.921Z,4.40
2022-12-29T05:15:53.906Z,4.40
2022-12-29T05:18:21.394Z,4.50
2022-12-29T05:20:48.879Z,4.40
2022-12-29T05:23:16.645Z,4.40
2022-12-29T05:25:46.308Z,4.40
2022-12-29T05:28:14.457Z,4.40
2022-12-29T05:30:41.805Z,4.40
2022-12-29T05:33:12.492Z,4.40
2022-12-29T05:35:40.093Z,4.50
2022-12-29T05:38:07.370Z,4.50
2022-12-29T05:40:34.535Z,4.50
2022-12-29T05:43:01.881Z,4.60
2022-12-29T05:45:29.389Z,4.50
2022-12-29T05:47:56.694Z,4.60
2022-12-29T05:50:23.696Z,4.50
2022-12-29T05:52:52.079Z,4.50
2022-12-29T05:55:19.249Z,4.50
2022-12-29T05:57:46.573Z,4.50
2022-12-29T06:00:14.141Z,4.50
2022-12-29T06:02:41.462Z,4.50
2022-12-29T06:05:09.012Z,4.60
2022-12-29T06:07:36.217Z,4.60
2022-12-29T06:10:03.450Z,4.60
2022-12-29T06:12:30.800Z,4.70
2022-12-29T06:14:57.802Z,4.70
2022-12-29T06:17:25.089Z,4.70
2022-12-29T06:19:52.351Z,4.70
2022-12-29T06:22:19.646Z,4.70
2022-12-29T06:24:46.732Z,4.80
2022-12-29T06:27:14.937Z,4.80
2022-12-29T06:29:42.013Z,4.80
2022-12-29T06:32:09.648Z,4.90
2022-12-29T06:34:36.688Z,4.80
2022-12-29T06:37:04.536Z,4.90
2022-12-29T06:39:31.599Z,4.90
2022-12-29T06:41:58.872Z,5.00
2022-12-29T06:44:25.872Z,4.90
2022-12-29T06:46:53.153Z,4.90
2022-12-29T06:49:20.218Z,4.90
2022-12-29T06:51:47.606Z,4.90
2022-12-29T06:54:14.580Z,5.00
2022-12-29T06:56:41.944Z,5.00
2022-12-29T06:59:09.772Z,5.10
2022-12-29T07:01:37.324Z,5.10
2022-12-29T07:04:04.752Z,5.10
2022-12-29T07:06:32.020Z,5.20
2022-12-29T07:08:59.138Z,5.10
2022-12-29T07:11:26.413Z,5.10
2022-12-29T07:13:53.448Z,5.20
2022-12-29T07:16:21.280Z,5.20
2022-12-29T07:18:48.480Z,5.20
2022-12-29T07:21:15.965Z,5.20
2022-12-29T07:23:43.154Z,5.30
2022-12-29T07:26:13.486Z,5.30
2022-12-29T07:28:40.643Z,5.40
2022-12-29T07:31:10.697Z,5.30
2022-12-29T07:33:37.668Z,5.40
2022-12-29T07:36:05.371Z,5.40
2022-12-29T07:38:32.371Z,5.40
2022-12-29T07:41:00.144Z,5.50
2022-12-29T07:43:27.249Z,5.50
2022-12-29T07:45:54.701Z,5.50
2022-12-29T07:48:22.355Z,5.50
2022-12-29T07:50:50.711Z,5.60
2022-12-29T07:53:17.698Z,5.60
2022-12-29T07:55:44.922Z,5.60
2022-12-29T07:58:11.894Z,5.60
2022-12-29T08:00:39.946Z,5.60
2022-12-29T08:03:06.847Z,5.60
2022-12-29T08:05:35.246Z,5.60
2022-12-29T08:08:02.221Z,5.70
2022-12-29T08:10:29.502Z,5.70
2022-12-29T08:12:56.489Z,5.70
2022-12-29T08:15:30.426Z,5.70
2022-12-29T08:17:59.501Z,5.80
2022-12-29T08:20:26.737Z,5.90
2022-12-29T08:22:53.721Z,6.00
2022-12-29T08:25:21.009Z,6.10
2022-12-29T08:27:48.154Z,6.10
2022-12-29T08:30:15.680Z,6.20
2022-12-29T08:32:42.806Z,6.20
2022-12-29T08:35:10.358Z,6.30
2022-12-29T08:37:37.380Z,6.30
2022-12-29T08:40:06.668Z,6.30
2022-12-29T08:42:34.102Z,6.40
2022-12-29T08:45:02.232Z,6.40
2022-12-29T08:47:29.338Z,6.50
2022-12-29T08:49:56.654Z,6.50
2022-12-29T08:52:23.991Z,6.60
2022-12-29T08:54:51.614Z,6.60
2022-12-29T08:57:19.301Z,6.70
2022-12-29T08:59:46.563Z,6.70
2022-12-29T09:02:18.789Z,6.70
2022-12-29T09:04:50.601Z,6.70
2022-12-29T09:07:17.603Z,6.70
2022-12-29T09:09:45.255Z,6.80
2022-12-29T09:12:12.273Z,6.80
2022-12-29T09:14:39.727Z,6.90
2022-12-29T09:17:25.641Z,6.80
2022-12-29T09:19:53.636Z,6.80
2022-12-29T09:22:20.647Z,6.90
2022-12-29T09:24:48.000Z,6.90
2022-12-29T09:27:15.111Z,7.00
2022-12-29T09:29:42.462Z,7.00
2022-12-29T09:32:12.717Z,7.20
2022-12-29T09:34:44.341Z,7.20
2022-12-29T09:37:11.513Z,7.20
2022-12-29T09:39:38.722Z,7.20
2022-12-29T09:42:17.807Z,7.20
2022-12-29T09:45:04.311Z,7.10
2022-12-29T09:47:31.722Z,7.10
2022-12-29T09:50:27.042Z,7.10
2022-12-29T09:53:06.172Z,7.20
2022-12-29T09:55:54.581Z,7.20
2022-12-29T09:58:44.732Z,7.30
2022-12-29T10:01:24.792Z,7.30
2022-12-29T10:03:57.252Z,7.30
2022-12-29T10:06:33.928Z,7.30
2022-12-29T10:09:03.396Z,7.30
2022-12-29T10:12:09.074Z,7.30
2022-12-29T10:15:04.300Z,7.40
2022-12-29T10:17:44.277Z,7.30
2022-12-29T10:20:21.853Z,7.30
2022-12-29T10:22:58.097Z,7.30
2022-12-29T10:25:31.195Z,7.30
2022-12-29T10:28:06.283Z,7.30
2022-12-29T10:30:36.200Z,7.40
2022-12-29T10:33:08.820Z,7.40
2022-12-29T10:35:40.097Z,7.40
2022-12-29T10:38:28.764Z,7.40
2022-12-29T10:41:06.422Z,7.40
2022-12-29T10:43:42.508Z,7.40
2022-12-29T10:46:17.089Z,7.50
2022-12-29T10:48:46.473Z,7.50
2022-12-29T10:51:31.350Z,7.60
2022-12-29T10:54:05.908Z,7.60
2022-12-29T10:56:57.216Z,7.70
2022-12-29T10:59:27.007Z,7.80
2022-12-29T11:01:59.217Z,7.80
2022-12-29T11:04:50.543Z,7.80
2022-12-29T11:07:25.127Z,7.80
2022-12-29T11:09:54.684Z,7.90
2022-12-29T11:12:31.499Z,7.90
2022-12-29T11:15:15.732Z,8.00
2022-12-29T11:17:48.925Z,8.00
2022-12-29T11:20:29.550Z,8.00
2022-12-29T11:22:56.957Z,8.00
2022-12-29T11:25:24.220Z,8.10
2022-12-29T11:28:03.590Z,8.10
2022-12-29T11:30:33.704Z,8.10
2022-12-29T11:33:04.718Z,8.10
2022-12-29T11:35:42.912Z,8.10
2022-12-29T11:38:26.665Z,8.20
2022-12-29T11:40:54.003Z,8.10
2022-12-29T11:43:34.636Z,8.20
2022-12-29T11:46:04.745Z,8.20
2022-12-29T11:48:42.665Z,8.20
2022-12-29T11:51:12.548Z,8.20
2022-12-29T11:53:47.972Z,8.20
2022-12-29T11:56:18.059Z,8.20
2022-12-29T11:58:45.675Z,8.20
2022-12-29T12:01:46.531Z,8.20
2022-12-29T12:04:17.445Z,8.20
2022-12-29T12:07:03.445Z,8.20
2022-12-29T12:09:35.287Z,8.20
2022-12-29T12:12:04.772Z,8.20
2022-12-29T12:14:53.241Z,8.30
2022-12-29T12:17:36.938Z,8.40
2022-12-29T12:20:29.340Z,8.40
2022-12-29T12:23:22.158Z,8.40
2022-12-29T12:25:58.550Z,8.50
2022-12-29T12:29:01.934Z,8.40
2022-12-29T12:31:43.841Z,8.50
2022-12-29T12:34:19.023Z,8.50
2022-12-29T12:37:23.991Z,8.50
2022-12-29T12:40:11.607Z,8.50
2022-12-29T12:42:56.478Z,8.50
2022-12-29T12:45:57.199Z,8.60
2022-12-29T12:48:48.610Z,8.60
2022-12-29T12:52:14.146Z,8.60
2022-12-29T12:55:19.928Z,8.60
2022-12-29T12:58:24.518Z,8.60
2022-12-29T13:00:54.369Z,8.60
2022-12-29T13:04:20.612Z,8.70
2022-12-29T13:07:25.183Z,8.70
2022-12-29T13:10:01.328Z,8.70
2022-12-29T13:13:03.628Z,8.80
2022-12-29T13:16:24.542Z,8.80
2022-12-29T13:18:59.230Z,8.80
2022-12-29T13:21:41.057Z,8.80
2022-12-29T13:25:00.523Z,8.80
2022-12-29T13:27:36.906Z,8.80
2022-12-29T13:30:16.777Z,8.90
2022-12-29T13:33:36.809Z,8.90
2022-12-29T13:36:18.650Z,9.00
2022-12-29T13:39:08.281Z,8.90
2022-12-29T13:41:40.568Z,9.00
2022-12-29T13:44:31.865Z,9.00
2022-12-29T13:47:26.233Z,9.00
2022-12-29T13:50:14.619Z,9.00
2022-12-29T13:52:46.260Z,9.00
2022-12-29T13:55:48.077Z,9.00
2022-12-29T13:59:07.750Z,9.00
2022-12-29T14:02:18.899Z,9.00
2022-12-29T14:04:59.974Z,8.90
2022-12-29T14:08:08.644Z,9.00
2022-12-29T14:10:55.912Z,9.00
2022-12-29T14:14:04.556Z,9.00
2022-12-29T14:16:47.087Z,9.00
2022-12-29T14:19:35.610Z,9.00
2022-12-29T14:22:59.741Z,9.00
2022-12-29T14:25:55.075Z,9.00
2022-12-29T14:28:44.734Z,9.00
2022-12-29T14:31:18.053Z,9.00
2022-12-29T14:34:12.672Z,9.00
2022-12-29T14:36:41.210Z,8.90
2022-12-29T14:39:40.275Z,8.90
2022-12-29T14:42:42.970Z,8.90
2022-12-29T14:45:53.326Z,8.90
2022-12-29T14:48:51.029Z,8.90
2022-12-29T14:51:39.130Z,8.90
2022-12-29T14:54:33.960Z,8.90
2022-12-29T14:57:23.505Z,8.90
2022-12-29T15:00:08.397Z,8.90
2022-12-29T15:02:41.547Z,8.90
2022-12-29T15:05:50.330Z,8.90
2022-12-29T15:08:44.247Z,8.90
2022-12-29T15:11:34.818Z,8.90
2022-12-29T15:14:32.343Z,8.90
2022-12-29T15:17:49.260Z,8.90
2022-12-29T15:21:01.595Z,8.90
2022-12-29T15:24:06.582Z,8.80
2022-12-29T15:26:52.833Z,8.80
2022-12-29T15:29:59.111Z,8.70
2022-12-29T15:33:18.702Z,8.60
2022-12-29T15:36:10.657Z,8.60
2022-12-29T15:38:57.631Z,8.60
2022-12-29T15:42:24.280Z,8.60
2022-12-29T15:45:33.886Z,8.70
2022-12-29T15:48:22.304Z,8.60
2022-12-29T15:51:17.225Z,8.60
2022-12-29T15:54:20.544Z,8.60
2022-12-29T15:57:24.168Z,8.60
2022-12-29T16:00:42.660Z,8.50
2022-12-29T16:03:14.847Z,8.50
2022-12-29T16:06:11.893Z,8.50
2022-12-29T16:09:45.474Z,8.50
2022-12-29T16:12:53.801Z,8.50
2022-12-29T16:15:35.734Z,8.40
2022-12-29T16:18:25.957Z,8.50
2022-12-29T16:21:39.076Z,8.50
2022-12-29T16:24:28.692Z,8.50
2022-12-29T16:27:24.118Z,8.40
2022-12-29T16:30:20.063Z,8.40
2022-12-29T16:33:33.663Z,8.30
2022-12-29T16:36:50.423Z,8.30
2022-12-29T16:39:34.810Z,8.40
2022-12-29T16:42:40.172Z,8.30
2022-12-29T16:45:19.485Z,8.30
2022-12-29T16:48:08.200Z,8.30
2022-12-29T16:50:38.540Z,8.30
2022-12-29T16:53:25.459Z,8.30
2022-12-29T16:56:36.097Z,8.30
2022-12-29T16:59:08.555Z,8.20
2022-12-29T17:01:51.742Z,8.30
2022-12-29T17:04:39.072Z,8.30
2022-12-29T17:07:46.562Z,8.20
2022-12-29T17:10:52.536Z,8.30
2022-12-29T17:13:19.515Z,8.30
2022-12-29T17:16:08.538Z,8.40
2022-12-29T17:19:19.882Z,8.50
2022-12-29T17:22:22.281Z,8.60
2022-12-29T17:25:04.377Z,8.60
2022-12-29T17:28:35.131Z,8.60
2022-12-29T17:31:22.335Z,8.70
2022-12-29T17:34:31.670Z,8.70
2022-12-29T17:37:25.498Z,8.70
2022-12-29T17:40:23.313Z,8.70
2022-12-29T17:43:12.128Z,8.60
2022-12-29T17:45:59.757Z,8.60
2022-12-29T17:48:53.197Z,8.60
2022-12-29T17:51:55.555Z,8.50
2022-12-29T17:54:45.860Z,8.50
2022-12-29T17:57:36.339Z,8.50
2022-12-29T18:00:04.279Z,8.50
2022-12-29T18:03:11.558Z,8.50
2022-12-29T18:06:18.910Z,8.50
2022-12-29T18:09:25.850Z,8.50
2022-12-29T18:12:31.536Z,8.40
2022-12-29T18:15:41.832Z,8.50
2022-12-29T18:19:09.350Z,8.50
2022-12-29T18:22:11.161Z,8.50
2022-12-29T18:24:53.025Z,8.40
2022-12-29T18:27:40.212Z,8.40
2022-12-29T18:30:27.472Z,8.40
2022-12-29T18:33:19.380Z,8.40
2022-12-29T18:35:53.315Z,8.30
2022-12-29T18:38:55.307Z,8.30
2022-12-29T18:41:45.598Z,8.30
2022-12-29T18:44:52.737Z,8.20
2022-12-29T18:47:20.025Z,8.20
2022-12-29T18:50:07.277Z,8.10
2022-12-29T18:53:18.983Z,8.20
2022-12-29T18:56:23.744Z,8.20
2022-12-29T18:59:05.531Z,8.20
2022-12-29T19:01:53.122Z,8.10
2022-12-29T19:04:40.646Z,8.20
2022-12-29T19:07:42.416Z,8.10
2022-12-29T19:10:25.396Z,8.10
2022-12-29T19:13:20.060Z,8.10
2022-12-29T19:16:27.132Z,8.20
2022-12-29T19:19:14.413Z,8.20
2022-12-29T19:21:41.315Z,8.10
2022-12-29T19:24:43.225Z,8.20
2022-12-29T19:27:45.017Z,8.20
2022-12-29T19:30:36.443Z,8.20
2022-12-29T19:33:23.830Z,8.20
2022-12-29T19:36:13.436Z,8.10
2022-12-29T19:39:21.899Z,8.00
2022-12-29T19:42:23.726Z,8.00
2022-12-29T19:45:12.315Z,8.00
2022-12-29T19:48:19.235Z,8.00
2022-12-29T19:50:46.797Z,8.00
2022-12-29T19:53:34.088Z,8.10
2022-12-29T19:56:24.168Z,8.10
2022-12-29T19:59:31.173Z,8.10
2022-12-29T20:02:20.183Z,8.10
2022-12-29T20:05:08.465Z,8.20
2022-12-29T20:07:55.352Z,8.20
2022-12-29T20:10:42.614Z,8.40
2022-12-29T20:13:31.159Z,8.30
2022-12-29T20:16:25.116Z,8.30
2022-12-29T20:19:12.108Z,8.30
2022-12-29T20:22:13.930Z,8.30
2022-12-29T20:25:18.324Z,8.30
2022-12-29T20:28:03.487Z,8.40
2022-12-29T20:31:29.928Z,8.50
2022-12-29T20:34:32.282Z,8.50
2022-12-29T20:36:59.626Z,8.50
2022-12-29T20:39:46.608Z,8.50
2022-12-29T20:42:33.776Z,8.40
2022-12-29T20:45:41.222Z,8.40
2022-12-29T20:48:23.039Z,8.40
2022-12-29T20:51:10.275Z,8.30
2022-12-29T20:53:57.624Z,8.30
2022-12-29T20:56:59.550Z,8.30
2022-12-29T20:59:41.385Z,8.20
2022-12-29T21:02:43.687Z,8.20
2022-12-29T21:05:46.321Z,8.20
2022-12-29T21:08:33.674Z,8.30
2022-12-29T21:11:01.447Z,8.30
2022-12-29T21:14:03.638Z,8.20
2022-12-29T21:17:05.441Z,8.30
2022-12-29T21:20:07.327Z,8.30
2022-12-29T21:22:49.123Z,8.30
2022-12-29T21:25:50.936Z,8.30
2022-12-29T21:28:39.414Z,8.20
2022-12-29T21:31:53.716Z,8.30
2022-12-29T21:34:35.695Z,8.30
2022-12-29T21:37:23.906Z,8.40
2022-12-29T21:40:11.175Z,8.40
2022-12-29T21:43:32.885Z,8.40
2022-12-29T21:46:54.559Z,8.40
2022-12-29T21:49:56.348Z,8.40
2022-12-29T21:52:23.589Z,8.40
2022-12-29T21:55:30.487Z,8.40
2022-12-29T21:58:36.298Z,8.40
2022-12-29T22:02:01.924Z,8.40
2022-12-29T22:05:02.345Z,8.40
2022-12-29T22:08:22.896Z,8.40
2022-12-29T22:11:28.842Z,8.40
2022-12-29T22:14:35.778Z,8.50
2022-12-29T22:17:19.443Z,8.60
2022-12-29T22:20:06.961Z,8.50
2022-12-29T22:23:15.071Z,8.60
2022-12-29T22:26:02.222Z,8.60
2022-12-29T22:28:51.972Z,8.60
2022-12-29T22:31:53.749Z,8.60
2022-12-29T22:34:55.507Z,8.60
2022-12-29T22:37:57.929Z,8.60
2022-12-29T22:40:25.712Z,8.60
2022-12-29T22:43:32.613Z,8.60
2022-12-29T22:46:22.994Z,8.60
2022-12-29T22:49:29.908Z,8.60
2022-12-29T22:52:14.357Z,8.60
2022-12-29T22:55:06.675Z,8.50
2022-12-29T22:58:14.104Z,8.50
2022-12-29T23:01:01.692Z,8.40
2022-12-29T23:03:49.105Z,8.30
2022-12-29T23:06:37.328Z,8.20
2022-12-29T23:09:05.464Z,8.30
2022-12-29T23:11:53.412Z,8.10
2022-12-29T23:15:00.309Z,8.00
2022-12-29T23:17:47.510Z,8.10
2022-12-29T23:20:15.023Z,8.00
2022-12-29T23:23:02.196Z,8.00
2022-12-29T23:25:49.096Z,8.00
2022-12-29T23:28:59.909Z,8.00
2022-12-29T23:32:27.389Z,8.10
2022-12-29T23:35:30.006Z,8.10
2022-12-29T23:37:57.484Z,8.10
2022-12-29T23:40:44.386Z,8.10
2022-12-29T23:43:46.660Z,8.10
2022-12-29T23:46:35.633Z,8.00
2022-12-29T23:49:23.065Z,8.00
2022-12-29T23:52:10.320Z,7.90
2022-12-29T23:54:57.193Z,7.90
2022-12-29T23:57:44.373Z,7.80
